Time;durP1;ratioP1;P1;durP2;ratioP2;P2;SDS_P1;SDS_P2;PMS_P1;PMS_P2;Temp;Humidity;BMP_temperature;BMP_pressure;BME280_temperature;BME280_humidity;BME280_pressure;Samples;Min_cycle;Max_cycle;Signal;HPM_P1;HPM_P2
2022/06/27 00:02:24;;;;;;;;;6.33;6.00;;;;;-147.17;100.00;59696.56;5003662;28;51334;-76
2022/06/27 00:04:50;;;;;;;;;5.67;5.67;;;;;-147.17;100.00;59696.56;5001177;28;51097;-82
2022/06/27 00:07:15;;;;;;;;;5.67;5.33;;;;;-147.17;100.00;59696.56;5009220;28;51094;-77
2022/06/27 00:09:40;;;;;;;;;3.67;3.67;;;;;-147.17;100.00;59696.56;5002988;28;51799;-74
2022/06/27 00:12:06;;;;;;;;;5.67;5.00;;;;;-147.17;100.00;59696.56;5011369;28;51155;-76
2022/06/27 00:14:31;;;;;;;;;3.67;3.67;;;;;-147.17;100.00;59696.56;5012383;28;50926;-76
2022/06/27 00:16:57;;;;;;;;;4.67;4.67;;;;;-147.17;100.00;59696.56;5013146;28;50895;-75
2022/06/27 00:19:22;;;;;;;;;4.67;4.33;;;;;-147.17;100.00;59696.56;5009028;28;51866;-76
2022/06/27 00:21:48;;;;;;;;;4.67;4.00;;;;;-147.17;100.00;59696.56;5003153;28;51213;-76
2022/06/27 00:24:13;;;;;;;;;4.00;3.67;;;;;-147.17;100.00;59696.56;5006607;28;51239;-77
2022/06/27 00:26:38;;;;;;;;;4.67;4.67;;;;;-147.17;100.00;59696.56;4996999;28;51326;-76
2022/06/27 00:29:04;;;;;;;;;4.33;4.33;;;;;-147.17;100.00;59696.56;4998088;28;52858;-76
2022/06/27 00:31:29;;;;;;;;;3.00;3.00;;;;;-147.17;100.00;59696.56;5005995;28;51010;-76
2022/06/27 00:33:55;;;;;;;;;3.33;3.33;;;;;-147.17;100.00;59696.56;5000111;28;51124;-76
2022/06/27 00:36:20;;;;;;;;;4.00;3.33;;;;;-147.17;100.00;59696.56;5000870;28;51125;-76
2022/06/27 00:38:46;;;;;;;;;4.00;4.00;;;;;-147.17;100.00;59696.56;5016881;28;51714;-77
2022/06/27 00:41:11;;;;;;;;;4.00;4.00;;;;;-147.17;100.00;59696.56;5011132;28;51128;-77
2022/06/27 00:43:36;;;;;;;;;4.67;4.67;;;;;-147.17;100.00;59696.56;4999480;28;50911;-77
2022/06/27 00:46:02;;;;;;;;;6.33;6.33;;;;;-147.17;100.00;59696.56;5008480;28;51042;-76
2022/06/27 00:48:28;;;;;;;;;6.33;6.33;;;;;-147.17;100.00;59696.56;5001274;28;51103;-76
2022/06/27 00:50:53;;;;;;;;;2.67;2.67;;;;;-147.17;100.00;59696.56;5001140;28;51187;-76
2022/06/27 00:53:19;;;;;;;;;5.33;5.00;;;;;-147.17;100.00;59696.56;4997266;28;51195;-76
2022/06/27 00:55:44;;;;;;;;;3.00;2.00;;;;;-147.17;100.00;59696.56;5004402;28;51024;-77
2022/06/27 00:58:10;;;;;;;;;4.00;3.67;;;;;-147.17;100.00;59696.56;5001517;28;51609;-76
2022/06/27 01:00:36;;;;;;;;;3.00;3.00;;;;;-147.17;100.00;59696.56;5011462;28;51276;-76
2022/06/27 01:03:01;;;;;;;;;5.67;4.67;;;;;-147.17;100.00;59696.56;5002864;28;51158;-76
2022/06/27 01:05:27;;;;;;;;;11.33;10.33;;;;;-147.17;100.00;59696.56;5006027;28;51036;-76
2022/06/27 01:07:52;;;;;;;;;12.67;10.33;;;;;-147.17;100.00;59696.56;5003873;28;51954;-76
2022/06/27 01:10:18;;;;;;;;;12.33;12.00;;;;;-147.17;100.00;59696.56;5001295;28;51065;-77
2022/06/27 01:12:43;;;;;;;;;10.00;9.67;;;;;-147.17;100.00;59696.56;5002917;28;51104;-77
2022/06/27 01:15:10;;;;;;;;;12.33;12.33;;;;;-147.17;100.00;59696.56;5003601;28;51272;-75
2022/06/27 01:17:37;;;;;;;;;13.00;11.67;;;;;-147.17;100.00;59696.56;5009779;28;53430;-77
2022/06/27 01:20:03;;;;;;;;;12.33;11.33;;;;;-147.17;100.00;59696.56;5005999;28;51061;-74
2022/06/27 01:22:30;;;;;;;;;11.67;11.67;;;;;-147.17;100.00;59696.56;4998862;28;51003;-76
2022/06/27 01:24:55;;;;;;;;;11.00;10.00;;;;;-147.17;100.00;59696.56;5010502;28;51340;-74
2022/06/27 01:27:22;;;;;;;;;20.25;18.25;;;;;-147.17;100.00;59696.56;5003580;28;52079;-78
2022/06/27 01:29:47;;;;;;;;;12.67;12.00;;;;;-147.17;100.00;59696.56;5008055;28;51208;-78
2022/06/27 01:32:12;;;;;;;;;6.33;5.33;;;;;-147.17;100.00;59696.56;5006543;28;51145;-75
2022/06/27 01:34:38;;;;;;;;;4.67;4.00;;;;;-147.17;100.00;59696.56;4996191;28;51357;-77
2022/06/27 01:37:04;;;;;;;;;6.67;6.00;;;;;-147.17;100.00;59696.56;4997387;28;51794;-74
2022/06/27 01:39:30;;;;;;;;;4.00;4.00;;;;;-147.17;100.00;59696.56;4995025;28;50918;-77
2022/06/27 01:42:02;;;;;;;;;3.33;3.33;;;;;-147.17;100.00;59696.56;4998099;28;51026;-77
2022/06/27 01:44:30;;;;;;;;;4.00;3.00;;;;;-147.17;100.00;59696.56;4995521;28;50978;-78
2022/06/27 01:47:00;;;;;;;;;3.00;3.00;;;;;-147.17;100.00;59696.56;4993280;28;52171;-78
2022/06/27 01:49:28;;;;;;;;;3.00;3.00;;;;;-147.17;100.00;59696.56;5004809;28;52437;-78
2022/06/27 01:51:55;;;;;;;;;2.33;2.33;;;;;-147.17;100.00;59696.56;5019542;28;53960;-76
2022/06/27 01:54:22;;;;;;;;;3.33;2.67;;;;;-147.17;100.00;59696.56;4999220;28;50993;-77
2022/06/27 01:56:51;;;;;;;;;3.67;3.67;;;;;-147.17;100.00;59696.56;5008091;28;51955;-77
2022/06/27 01:59:20;;;;;;;;;4.33;3.67;;;;;-147.17;100.00;59696.56;5010615;28;51231;-77
2022/06/27 02:01:46;;;;;;;;;4.00;3.33;;;;;-147.17;100.00;59696.56;5017929;28;50989;-77
2022/06/27 02:04:13;;;;;;;;;2.67;2.67;;;;;-147.17;100.00;59696.56;5003877;28;51476;-76
2022/06/27 02:06:41;;;;;;;;;3.00;3.00;;;;;-147.17;100.00;59696.56;4998167;28;52154;-77
2022/06/27 02:09:08;;;;;;;;;2.33;2.33;;;;;-147.17;100.00;59696.56;4999423;28;51283;-77
2022/06/27 02:11:34;;;;;;;;;1.33;1.33;;;;;-147.17;100.00;59696.56;5012717;28;50958;-77
2022/06/27 02:13:59;;;;;;;;;2.33;2.33;;;;;-147.17;100.00;59696.56;4995224;28;50848;-76
2022/06/27 02:16:25;;;;;;;;;3.00;3.00;;;;;-147.17;100.00;59696.56;5002045;28;51061;-78
2022/06/27 02:18:51;;;;;;;;;3.33;2.67;;;;;-147.17;100.00;59696.56;5000810;28;51114;-77
2022/06/27 02:21:20;;;;;;;;;2.33;2.00;;;;;-147.17;100.00;59696.56;5013004;28;51139;-77
2022/06/27 02:23:46;;;;;;;;;1.67;1.67;;;;;-147.17;100.00;59696.56;4996650;28;51285;-75
2022/06/27 02:26:12;;;;;;;;;0.67;0.67;;;;;-147.17;100.00;59696.56;5001983;28;51166;-77
2022/06/27 02:28:38;;;;;;;;;3.00;2.67;;;;;-147.17;100.00;59696.56;4994160;28;51082;-78
2022/06/27 02:31:06;;;;;;;;;3.33;3.00;;;;;-147.17;100.00;59696.56;4992559;28;51149;-78
2022/06/27 02:33:44;;;;;;;;;2.33;2.33;;;;;-147.17;100.00;59696.56;5005770;28;51082;-78
2022/06/27 02:36:16;;;;;;;;;2.67;2.67;;;;;-147.17;100.00;59696.56;5010708;28;52352;-76
2022/06/27 02:38:43;;;;;;;;;2.67;1.67;;;;;-147.17;100.00;59696.56;5008061;28;51037;-78
2022/06/27 02:41:20;;;;;;;;;2.50;2.50;;;;;-147.17;100.00;59696.56;4994068;28;51111;-78
2022/06/27 02:43:48;;;;;;;;;3.67;2.67;;;;;-147.17;100.00;59696.56;4995562;28;51219;-79
2022/06/27 02:46:14;;;;;;;;;2.33;2.33;;;;;-147.17;100.00;59696.56;4994333;28;52610;-78
2022/06/27 02:48:40;;;;;;;;;2.67;2.67;;;;;-147.17;100.00;59696.56;5000261;28;50890;-78
2022/06/27 02:51:09;;;;;;;;;3.00;2.33;;;;;-147.17;100.00;59696.56;5002674;28;51073;-77
2022/06/27 02:53:47;;;;;;;;;3.33;2.67;;;;;-147.17;100.00;59696.56;4996472;28;51111;-78
2022/06/27 02:56:18;;;;;;;;;1.67;1.67;;;;;-147.17;100.00;59696.56;5000018;28;52173;-79
2022/06/27 02:58:57;;;;;;;;;3.00;3.00;;;;;-147.17;100.00;59696.56;5003232;28;51195;-78
2022/06/27 03:01:26;;;;;;;;;3.00;3.00;;;;;-147.17;100.00;59696.56;5001516;28;51111;-76
2022/06/27 03:03:53;;;;;;;;;2.67;2.67;;;;;-147.17;100.00;59696.56;4991374;28;51318;-77
2022/06/27 03:06:19;;;;;;;;;3.67;3.67;;;;;-147.17;100.00;59696.56;5000931;28;53167;-77
2022/06/27 03:08:47;;;;;;;;;2.67;2.67;;;;;-147.17;100.00;59696.56;5000354;28;51223;-79
2022/06/27 03:11:15;;;;;;;;;4.00;4.00;;;;;-147.17;100.00;59696.56;5011002;28;51147;-77
2022/06/27 03:13:42;;;;;;;;;4.33;4.33;;;;;-147.17;100.00;59696.56;5007813;28;51041;-77
2022/06/27 03:16:08;;;;;;;;;3.00;3.00;;;;;-147.17;100.00;59696.56;5015202;28;51436;-78
2022/06/27 03:18:34;;;;;;;;;3.67;3.00;;;;;-147.17;100.00;59696.56;4999801;28;51215;-78
2022/06/27 03:20:59;;;;;;;;;8.33;6.00;;;;;-147.17;100.00;59696.56;5004034;28;51300;-77
2022/06/27 03:23:25;;;;;;;;;3.00;2.33;;;;;-147.17;100.00;59696.56;4995601;28;51223;-76
2022/06/27 03:25:50;;;;;;;;;4.00;4.00;;;;;-147.17;100.00;59696.56;4994862;28;52130;-78
2022/06/27 03:28:17;;;;;;;;;4.67;3.67;;;;;-147.17;100.00;59696.56;4998977;28;51124;-77
2022/06/27 03:30:43;;;;;;;;;3.67;3.67;;;;;-147.17;100.00;59696.56;5003002;28;51217;-77
2022/06/27 03:33:09;;;;;;;;;3.67;3.67;;;;;-147.17;100.00;59696.56;5004392;28;51219;-76
2022/06/27 03:35:34;;;;;;;;;3.67;3.67;;;;;-147.17;100.00;59696.56;4994736;28;51038;-76
2022/06/27 03:37:59;;;;;;;;;3.67;3.67;;;;;-147.17;100.00;59696.56;4995136;28;52767;-77
2022/06/27 03:40:25;;;;;;;;;5.00;4.33;;;;;-147.17;100.00;59696.56;5004767;28;51036;-76
2022/06/27 03:42:50;;;;;;;;;4.00;4.00;;;;;-147.17;100.00;59696.56;4994591;28;51351;-78
2022/06/27 03:45:16;;;;;;;;;4.67;4.00;;;;;-147.17;100.00;59696.56;4996229;28;51127;-77
2022/06/27 03:47:50;;;;;;;;;4.33;4.33;;;;;-147.17;100.00;59696.56;5007478;28;51155;-78
2022/06/27 03:50:20;;;;;;;;;3.67;3.67;;;;;-147.17;100.00;59696.56;5001954;28;50958;-77
2022/06/27 03:52:45;;;;;;;;;3.67;3.67;;;;;-147.17;100.00;59696.56;5002410;28;51164;-77
2022/06/27 03:55:12;;;;;;;;;3.67;3.67;;;;;-147.17;100.00;59696.56;4994231;28;51992;-78
2022/06/27 03:57:45;;;;;;;;;3.33;3.33;;;;;-147.17;100.00;59696.56;5008209;28;51282;-77
2022/06/27 04:00:10;;;;;;;;;4.67;4.33;;;;;-147.17;100.00;59696.56;4997653;28;50946;-77
2022/06/27 04:02:36;;;;;;;;;3.33;3.33;;;;;-147.17;100.00;59696.56;5007507;28;51303;-78
2022/06/27 04:05:03;;;;;;;;;3.67;3.67;;;;;-147.17;100.00;59696.56;5003392;28;51043;-76
2022/06/27 04:07:28;;;;;;;;;3.67;3.67;;;;;-147.17;100.00;59696.56;5008365;28;51244;-77
2022/06/27 04:09:54;;;;;;;;;3.67;3.67;;;;;-147.17;100.00;59696.56;5006428;28;51355;-77
2022/06/27 04:12:19;;;;;;;;;4.33;4.33;;;;;-147.17;100.00;59696.56;5002597;28;51006;-76
2022/06/27 04:14:44;;;;;;;;;3.67;3.67;;;;;-147.17;100.00;59696.56;4994546;28;51023;-77
2022/06/27 04:17:10;;;;;;;;;4.67;4.33;;;;;-147.17;100.00;59696.56;5011677;28;51041;-77
2022/06/27 04:19:35;;;;;;;;;4.00;4.00;;;;;-147.17;100.00;59696.56;5000679;28;51079;-77
2022/06/27 04:22:01;;;;;;;;;3.33;3.33;;;;;-147.17;100.00;59696.56;5005905;28;50881;-76
2022/06/27 04:24:26;;;;;;;;;4.33;4.33;;;;;-147.17;100.00;59696.56;5002251;28;51118;-76
2022/06/27 04:26:51;;;;;;;;;4.67;4.33;;;;;-147.17;100.00;59696.56;4999729;28;51135;-76
2022/06/27 04:29:17;;;;;;;;;5.00;5.00;;;;;-147.17;100.00;59696.56;4998290;28;51149;-77
2022/06/27 04:31:42;;;;;;;;;2.33;2.33;;;;;-147.17;100.00;59696.56;5001320;28;51382;-77
2022/06/27 04:34:08;;;;;;;;;5.00;5.00;;;;;-147.17;100.00;59696.56;4994921;28;52591;-77
2022/06/27 04:36:33;;;;;;;;;3.00;3.00;;;;;-147.17;100.00;59696.56;4993349;28;51148;-77
2022/06/27 04:38:58;;;;;;;;;5.33;5.00;;;;;-147.17;100.00;59696.56;4994771;28;51109;-76
2022/06/27 04:41:28;;;;;;;;;5.00;5.00;;;;;-147.17;100.00;59696.56;5007377;28;51347;-77
2022/06/27 04:43:54;;;;;;;;;3.67;3.67;;;;;-147.17;100.00;59696.56;5000518;28;52346;-77
2022/06/27 04:46:20;;;;;;;;;5.00;4.00;;;;;-147.17;100.00;59696.56;5005751;28;51324;-77
2022/06/27 04:48:46;;;;;;;;;4.00;4.00;;;;;-147.17;100.00;59696.56;5008870;28;51181;-78
2022/06/27 04:51:13;;;;;;;;;3.33;3.33;;;;;-147.17;100.00;59696.56;5005023;28;51383;-76
2022/06/27 04:53:39;;;;;;;;;5.33;4.33;;;;;-147.17;100.00;59696.56;4997020;28;51919;-75
2022/06/27 04:56:06;;;;;;;;;3.33;3.33;;;;;-147.17;100.00;59696.56;4993123;28;51191;-77
2022/06/27 04:58:31;;;;;;;;;5.00;5.00;;;;;-147.17;100.00;59696.56;4993243;28;51108;-76
2022/06/27 05:00:57;;;;;;;;;5.00;4.33;;;;;-147.17;100.00;59696.56;5007188;28;51143;-77
2022/06/27 05:03:23;;;;;;;;;4.00;4.00;;;;;-147.17;100.00;59696.56;4997311;28;50998;-77
2022/06/27 05:05:50;;;;;;;;;3.00;3.00;;;;;-147.17;100.00;59696.56;4999742;28;51168;-77
2022/06/27 05:08:16;;;;;;;;;5.00;5.00;;;;;-147.17;100.00;59696.56;4995105;28;51105;-78
2022/06/27 05:10:42;;;;;;;;;5.00;5.00;;;;;-147.17;100.00;59696.56;4998831;28;50970;-77
2022/06/27 05:13:08;;;;;;;;;5.00;5.00;;;;;-147.17;100.00;59696.56;4999296;28;53747;-75
2022/06/27 05:15:33;;;;;;;;;6.00;6.00;;;;;-147.17;100.00;59696.56;5005812;28;51228;-78
2022/06/27 05:17:59;;;;;;;;;5.00;5.00;;;;;-147.17;100.00;59696.56;5005692;28;51391;-77
2022/06/27 05:20:24;;;;;;;;;4.67;4.00;;;;;-147.17;100.00;59696.56;4993767;28;51132;-76
2022/06/27 05:22:50;;;;;;;;;4.00;4.00;;;;;-147.17;100.00;59696.56;4997999;28;51371;-76
2022/06/27 05:25:15;;;;;;;;;4.33;4.33;;;;;-147.17;100.00;59696.56;4997278;28;51124;-77
2022/06/27 05:27:40;;;;;;;;;4.00;3.67;;;;;-147.17;100.00;59696.56;5005471;28;51175;-77
2022/06/27 05:30:07;;;;;;;;;6.33;6.33;;;;;-147.17;100.00;59696.56;5007886;28;50942;-77
2022/06/27 05:32:32;;;;;;;;;4.00;3.33;;;;;-147.17;100.00;59696.56;5005724;28;52017;-78
2022/06/27 05:34:58;;;;;;;;;4.33;4.33;;;;;-147.17;100.00;59696.56;5012451;28;51240;-78
2022/06/27 05:37:24;;;;;;;;;5.33;5.00;;;;;-147.17;100.00;59696.56;5005482;28;51126;-78
2022/06/27 05:39:49;;;;;;;;;5.00;4.67;;;;;-147.17;100.00;59696.56;5004475;28;51308;-76
2022/06/27 05:42:15;;;;;;;;;5.33;5.33;;;;;-147.17;100.00;59696.56;4993922;28;51043;-78
2022/06/27 05:44:40;;;;;;;;;10.67;10.67;;;;;-147.17;100.00;59696.56;5005998;28;51173;-77
2022/06/27 05:47:05;;;;;;;;;4.33;4.33;;;;;-147.17;100.00;59696.56;5009714;28;51281;-77
2022/06/27 05:49:31;;;;;;;;;6.67;5.33;;;;;-147.17;100.00;59696.56;5001825;28;51217;-78
2022/06/27 05:51:57;;;;;;;;;3.00;3.00;;;;;-147.17;100.00;59696.56;5005994;28;51991;-76
2022/06/27 05:54:24;;;;;;;;;6.00;5.33;;;;;-147.17;100.00;59696.56;4997887;28;50914;-77
2022/06/27 05:56:50;;;;;;;;;4.00;4.00;;;;;-147.17;100.00;59696.56;5005670;28;51084;-78
2022/06/27 05:59:17;;;;;;;;;3.33;3.33;;;;;-147.17;100.00;59696.56;5011829;28;51087;-77
2022/06/27 06:01:45;;;;;;;;;5.67;5.67;;;;;-147.17;100.00;59696.56;5005942;28;52932;-79
2022/06/27 06:04:10;;;;;;;;;5.67;4.67;;;;;-147.17;100.00;59696.56;5007469;28;51128;-80
2022/06/27 06:06:36;;;;;;;;;5.00;5.00;;;;;-147.17;100.00;59696.56;5011514;28;51302;-75
2022/06/27 06:09:03;;;;;;;;;4.67;4.67;;;;;-147.17;100.00;59696.56;5011054;28;51142;-77
2022/06/27 06:11:29;;;;;;;;;5.33;5.33;;;;;-147.17;100.00;59696.56;5011297;28;51941;-76
2022/06/27 06:13:54;;;;;;;;;7.00;5.67;;;;;-147.17;100.00;59696.56;4994032;28;51263;-76
2022/06/27 06:16:20;;;;;;;;;5.00;5.00;;;;;-147.17;100.00;59696.56;4998051;28;51093;-78
2022/06/27 06:18:52;;;;;;;;;5.67;5.67;;;;;-147.17;100.00;59696.56;4992732;28;51352;-75
2022/06/27 06:21:21;;;;;;;;;7.67;7.67;;;;;-147.17;100.00;59696.56;5002764;28;52346;-77
2022/06/27 06:23:49;;;;;;;;;8.33;7.33;;;;;-147.17;100.00;59696.56;5010954;28;51012;-77
2022/06/27 06:26:16;;;;;;;;;3.67;3.67;;;;;-147.17;100.00;59696.56;5010453;28;51050;-76
2022/06/27 06:28:43;;;;;;;;;7.33;6.33;;;;;-147.17;100.00;59696.56;4995513;28;51335;-75
2022/06/27 06:31:09;;;;;;;;;7.67;6.33;;;;;-147.17;100.00;59696.56;4991355;28;52922;-76
2022/06/27 06:33:34;;;;;;;;;5.33;4.67;;;;;-147.17;100.00;59696.56;4992082;28;51348;-76
2022/06/27 06:36:00;;;;;;;;;5.00;4.67;;;;;-147.17;100.00;59696.56;5008042;28;51045;-73
2022/06/27 06:38:26;;;;;;;;;6.00;6.00;;;;;-147.17;100.00;59696.56;4991845;28;51068;-75
2022/06/27 06:40:51;;;;;;;;;4.00;4.00;;;;;-147.17;100.00;59696.56;4994003;28;51887;-71
2022/06/27 06:43:17;;;;;;;;;5.00;5.00;;;;;-147.17;100.00;59696.56;5012911;28;51032;-71
2022/06/27 06:45:43;;;;;;;;;7.33;7.33;;;;;-147.17;100.00;59696.56;5014623;28;51181;-70
2022/06/27 06:48:09;;;;;;;;;9.00;8.00;;;;;-147.17;100.00;59696.56;5005298;28;51230;-71
2022/06/27 06:50:35;;;;;;;;;11.33;11.33;;;;;-147.17;100.00;59696.56;5020185;28;52948;-71
2022/06/27 06:53:01;;;;;;;;;5.00;4.00;;;;;-147.17;100.00;59696.56;5012617;28;51361;-71
2022/06/27 06:55:27;;;;;;;;;5.67;5.67;;;;;-147.17;100.00;59696.56;4997049;28;50934;-71
2022/06/27 06:57:54;;;;;;;;;6.33;6.33;;;;;-147.17;100.00;59696.56;4995412;28;51244;-71
2022/06/27 07:00:19;;;;;;;;;5.00;5.00;;;;;-147.17;100.00;59696.56;4995885;28;52127;-70
2022/06/27 07:02:45;;;;;;;;;6.00;5.67;;;;;-147.17;100.00;59696.56;5008959;28;51228;-71
2022/06/27 07:05:13;;;;;;;;;5.33;5.33;;;;;-147.17;100.00;59696.56;5012966;28;51347;-70
2022/06/27 07:07:44;;;;;;;;;5.33;5.33;;;;;-147.17;100.00;59696.56;5003213;28;51092;-70
2022/06/27 07:10:11;;;;;;;;;5.67;5.00;;;;;-147.17;100.00;59696.56;5010253;28;52140;-69
2022/06/27 07:12:38;;;;;;;;;5.00;4.00;;;;;-147.17;100.00;59696.56;5004813;28;51212;-70
2022/06/27 07:15:09;;;;;;;;;4.33;3.67;;;;;-147.17;100.00;59696.56;5009857;28;51182;-71
2022/06/27 07:17:41;;;;;;;;;3.33;3.33;;;;;-147.17;100.00;59696.56;5008379;28;51371;-70
2022/06/27 07:20:07;;;;;;;;;4.33;4.00;;;;;-147.17;100.00;59696.56;5011520;28;52694;-71
2022/06/27 07:22:34;;;;;;;;;4.67;4.00;;;;;-147.17;100.00;59696.56;5004922;28;51298;-71
2022/06/27 07:24:59;;;;;;;;;3.00;3.00;;;;;-147.17;100.00;59696.56;5000034;28;51313;-70
2022/06/27 07:27:25;;;;;;;;;5.33;3.67;;;;;-147.17;100.00;59696.56;5003998;28;52603;-77
2022/06/27 07:29:51;;;;;;;;;3.33;3.33;;;;;-147.17;100.00;59696.56;5002594;28;51130;-72
2022/06/27 07:32:17;;;;;;;;;5.33;5.00;;;;;-147.17;100.00;59696.56;5006465;28;52455;-73
2022/06/27 07:34:42;;;;;;;;;7.00;6.67;;;;;-147.17;100.00;59696.56;5006307;28;51532;-71
2022/06/27 07:37:07;;;;;;;;;5.00;5.00;;;;;-147.17;100.00;59696.56;5008213;28;51201;-71
2022/06/27 07:39:33;;;;;;;;;6.00;4.33;;;;;-147.17;100.00;59696.56;5006595;28;51226;-70
2022/06/27 07:41:58;;;;;;;;;5.67;4.67;;;;;-147.17;100.00;59696.56;5006442;28;51249;-73
2022/06/27 07:44:24;;;;;;;;;3.33;3.33;;;;;-147.17;100.00;59696.56;5004521;28;51336;-73
2022/06/27 07:46:50;;;;;;;;;4.00;4.00;;;;;-147.17;100.00;59696.56;5006419;28;51265;-72
2022/06/27 07:49:15;;;;;;;;;4.67;4.33;;;;;-147.17;100.00;59696.56;5006111;28;50923;-70
2022/06/27 07:51:41;;;;;;;;;5.00;4.67;;;;;-147.17;100.00;59696.56;5010130;28;51162;-72
2022/06/27 07:54:10;;;;;;;;;4.67;4.00;;;;;-147.17;100.00;59696.56;5005920;28;51247;-74
2022/06/27 07:56:36;;;;;;;;;3.33;3.33;;;;;-147.17;100.00;59696.56;5006751;28;54493;-76
2022/06/27 07:59:10;;;;;;;;;4.00;4.00;;;;;-147.17;100.00;59696.56;5005631;28;52803;-75
2022/06/27 08:01:36;;;;;;;;;6.33;5.67;;;;;-147.17;100.00;59696.56;5012269;28;51204;-74
2022/06/27 08:04:02;;;;;;;;;12.33;9.00;;;;;-147.17;100.00;59696.56;5010092;28;51139;-75
2022/06/27 08:06:28;;;;;;;;;4.67;3.67;;;;;-147.17;100.00;59696.56;5013380;28;51165;-74
2022/06/27 08:08:59;;;;;;;;;4.33;3.33;;;;;-147.17;100.00;59696.56;5012017;28;51980;-75
2022/06/27 08:11:26;;;;;;;;;2.00;2.00;;;;;-147.17;100.00;59696.56;5005579;28;51716;-75
2022/06/27 08:13:53;;;;;;;;;3.67;2.67;;;;;-147.17;100.00;59696.56;5008633;28;51197;-73
2022/06/27 08:16:20;;;;;;;;;4.33;4.00;;;;;-147.17;100.00;59696.56;5002582;28;51314;-66
2022/06/27 08:18:48;;;;;;;;;5.00;4.67;;;;;-147.17;100.00;59696.56;5006083;28;52924;-66
2022/06/27 08:21:17;;;;;;;;;4.00;4.00;;;;;-147.17;100.00;59696.56;5007177;28;51276;-66
2022/06/27 08:23:44;;;;;;;;;7.00;6.00;;;;;-147.17;100.00;59696.56;5005172;28;51219;-65
2022/06/27 08:26:12;;;;;;;;;5.33;5.00;;;;;-147.17;100.00;59696.56;5010331;28;51253;-67
2022/06/27 08:28:40;;;;;;;;;6.00;5.00;;;;;-147.17;100.00;59696.56;5006774;28;51730;-68
2022/06/27 08:31:11;;;;;;;;;5.67;5.33;;;;;-147.17;100.00;59696.56;5004880;28;51267;-69
2022/06/27 08:33:39;;;;;;;;;5.67;5.00;;;;;-147.17;100.00;59696.56;5008482;28;51217;-66
2022/06/27 08:36:06;;;;;;;;;5.33;5.33;;;;;-147.17;100.00;59696.56;5007537;28;51108;-67
2022/06/27 08:38:42;;;;;;;;;3.00;3.00;;;;;-147.17;100.00;59696.56;5008476;28;51971;-67
2022/06/27 08:41:10;;;;;;;;;5.00;4.00;;;;;-147.17;100.00;59696.56;5007605;28;51191;-66
2022/06/27 08:43:36;;;;;;;;;6.00;5.33;;;;;-147.17;100.00;59696.56;5007939;28;51036;-65
2022/06/27 08:46:03;;;;;;;;;6.00;5.00;;;;;-147.17;100.00;59696.56;5007025;28;51068;-67
2022/06/27 08:48:29;;;;;;;;;5.67;5.67;;;;;-147.17;100.00;59696.56;5008175;28;52345;-66
2022/06/27 08:50:59;;;;;;;;;2.67;1.33;;;;;-147.17;100.00;59696.56;5006051;28;51328;-66
2022/06/27 08:53:26;;;;;;;;;3.33;2.67;;;;;-147.17;100.00;59696.56;5010373;28;51343;-65
2022/06/27 08:55:52;;;;;;;;;3.00;3.00;;;;;-147.17;100.00;59696.56;4994525;28;51042;-65
2022/06/27 08:58:19;;;;;;;;;3.00;3.00;;;;;-147.17;100.00;59696.56;4996935;28;51016;-65
2022/06/27 09:00:45;;;;;;;;;3.33;3.33;;;;;-147.17;100.00;59696.56;5021814;28;51068;-68
2022/06/27 09:03:18;;;;;;;;;5.00;5.00;;;;;-147.17;100.00;59696.56;5005519;28;51279;-68
2022/06/27 09:05:54;;;;;;;;;5.00;4.00;;;;;-147.17;100.00;59696.56;5006409;28;51137;-68
2022/06/27 09:08:20;;;;;;;;;3.00;3.00;;;;;-147.17;100.00;59696.56;5004859;28;52644;-69
2022/06/27 09:10:46;;;;;;;;;5.00;4.33;;;;;-147.17;100.00;59696.56;5002900;28;51145;-69
2022/06/27 09:13:17;;;;;;;;;3.00;3.00;;;;;-147.17;100.00;59696.56;5010300;28;51102;-67
2022/06/27 09:15:49;;;;;;;;;6.00;6.00;;;;;-147.17;100.00;59696.56;5007803;28;51197;-69
2022/06/27 09:18:18;;;;;;;;;3.00;3.00;;;;;-147.17;100.00;59696.56;5007750;28;51977;-66
2022/06/27 09:20:47;;;;;;;;;1.33;1.33;;;;;-147.17;100.00;59696.56;5011730;28;51203;-68
2022/06/27 09:23:47;;;;;;;;;3.33;3.33;;;;;-147.17;100.00;59696.56;4998786;28;51129;-67
2022/06/27 09:26:22;;;;;;;;;3.00;3.00;;;;;-147.17;100.00;59696.56;5001370;28;51047;-68
2022/06/27 09:28:50;;;;;;;;;4.00;4.00;;;;;-147.17;100.00;59696.56;5011514;28;51091;-66
2022/06/27 09:31:35;;;;;;;;;3.00;3.00;;;;;-147.17;100.00;59696.56;5011213;28;51210;-67
2022/06/27 09:34:24;;;;;;;;;2.00;2.00;;;;;-147.17;100.00;59696.56;5012315;28;51013;-67
2022/06/27 09:36:55;;;;;;;;;4.00;4.00;;;;;-147.17;100.00;59696.56;5011816;28;51133;-67
2022/06/27 09:39:33;;;;;;;;;3.00;3.00;;;;;-147.17;100.00;59696.56;5010626;28;51813;-66
2022/06/27 09:42:04;;;;;;;;;2.00;2.00;;;;;-147.17;100.00;59696.56;5012004;28;51033;-67
2022/06/27 09:44:41;;;;;;;;;4.00;4.00;;;;;-147.17;100.00;59696.56;5022885;28;51117;-67
2022/06/27 09:47:12;;;;;;;;;5.00;5.00;;;;;-147.17;100.00;59696.56;5004373;28;50955;-66
2022/06/27 09:49:41;;;;;;;;;6.00;3.33;;;;;-147.17;100.00;59696.56;5005136;28;51065;-69
2022/06/27 09:52:12;;;;;;;;;7.33;5.67;;;;;-147.17;100.00;59696.56;4993138;28;51132;-71
2022/06/27 09:54:40;;;;;;;;;2.00;2.00;;;;;-147.17;100.00;59696.56;4992300;28;51000;-68
2022/06/27 09:57:07;;;;;;;;;4.00;3.33;;;;;-147.17;100.00;59696.56;4992239;28;51081;-68
2022/06/27 09:59:33;;;;;;;;;2.00;2.00;;;;;-147.17;100.00;59696.56;4991572;28;52709;-67
2022/06/27 10:02:00;;;;;;;;;2.67;2.67;;;;;-147.17;100.00;59696.56;4996600;28;51227;-69
2022/06/27 10:04:26;;;;;;;;;1.00;1.00;;;;;-147.17;100.00;59696.56;5011716;28;51160;-67
2022/06/27 10:06:56;;;;;;;;;1.00;1.00;;;;;-147.17;100.00;59696.56;5008447;28;51239;-67
2022/06/27 10:09:24;;;;;;;;;4.33;4.00;;;;;-147.17;100.00;59696.56;4991363;28;51152;-67
2022/06/27 10:12:28;;;;;;;;;3.00;2.67;;;;;-147.17;100.00;59696.56;4991243;28;51238;-68
2022/06/27 10:15:14;;;;;;;;;3.00;3.00;;;;;-147.17;100.00;59696.56;4991457;28;51017;-66
2022/06/27 10:17:43;;;;;;;;;3.00;3.00;;;;;-147.17;100.00;59696.56;5007749;28;52318;-68
2022/06/27 10:20:18;;;;;;;;;5.67;4.67;;;;;-147.17;100.00;59696.56;4994696;28;51015;-68
2022/06/27 10:22:47;;;;;;;;;1.00;1.00;;;;;-147.17;100.00;59696.56;4994961;28;51025;-67
2022/06/27 10:25:27;;;;;;;;;3.00;3.00;;;;;-147.17;100.00;59696.56;4995314;28;50926;-67
2022/06/27 10:28:08;;;;;;;;;3.00;3.00;;;;;-147.17;100.00;59696.56;4997089;28;50911;-67
2022/06/27 10:30:43;;;;;;;;;2.00;2.00;;;;;-147.17;100.00;59696.56;5003321;28;51164;-67
2022/06/27 10:33:23;;;;;;;;;3.00;3.00;;;;;-147.17;100.00;59696.56;5004547;28;51215;-66
2022/06/27 10:35:59;;;;;;;;;2.67;2.67;;;;;-147.17;100.00;59696.56;5002843;28;51209;-69
2022/06/27 10:38:42;;;;;;;;;4.00;4.00;;;;;-147.17;100.00;59696.56;4999226;28;51172;-66
2022/06/27 10:41:10;;;;;;;;;2.00;2.00;;;;;-147.17;100.00;59696.56;5009221;28;52032;-68
2022/06/27 10:43:35;;;;;;;;;2.67;2.00;;;;;-147.17;100.00;59696.56;5029506;28;51240;-68
2022/06/27 10:46:21;;;;;;;;;2.33;2.00;;;;;-147.17;100.00;59696.56;5014615;28;51183;-67
2022/06/27 10:48:48;;;;;;;;;2.00;2.00;;;;;-147.17;100.00;59696.56;5014158;28;51127;-67
2022/06/27 10:51:21;;;;;;;;;5.00;2.33;;;;;-147.17;100.00;59696.56;4996426;28;52364;-68
2022/06/27 10:53:49;;;;;;;;;2.67;2.67;;;;;-147.17;100.00;59696.56;4998185;28;51162;-68
2022/06/27 10:56:26;;;;;;;;;3.00;3.00;;;;;-147.17;100.00;59696.56;4994297;28;51212;-68
2022/06/27 10:58:51;;;;;;;;;3.00;2.67;;;;;-147.17;100.00;59696.56;4994215;28;50941;-69
2022/06/27 11:01:18;;;;;;;;;3.33;3.00;;;;;-147.17;100.00;59696.56;4999689;28;51764;-68
2022/06/27 11:03:44;;;;;;;;;2.00;2.00;;;;;-147.17;100.00;59696.56;4993972;28;50978;-68
2022/06/27 11:06:13;;;;;;;;;2.33;2.33;;;;;-147.17;100.00;59696.56;5005511;28;51153;-68
2022/06/27 11:08:41;;;;;;;;;2.33;2.33;;;;;-147.17;100.00;59696.56;4994171;28;51380;-68
2022/06/27 11:11:07;;;;;;;;;4.00;4.00;;;;;-147.17;100.00;59696.56;4994084;28;52034;-69
2022/06/27 11:13:40;;;;;;;;;2.00;2.00;;;;;-147.17;100.00;59696.56;4998791;28;51158;-69